createdAt,value
2017-11-13T00:00:53.851Z,998.49
2017-11-13T00:01:53.871Z,998.5
2017-11-13T00:02:53.887Z,998.51
2017-11-13T00:03:53.905Z,998.5
2017-11-13T00:04:53.920Z,998.53
2017-11-13T00:05:53.940Z,998.55
2017-11-13T00:06:53.953Z,998.57
2017-11-13T00:07:53.967Z,998.55
2017-11-13T00:08:53.988Z,998.6
2017-11-13T00:09:54.001Z,998.58
2017-11-13T00:11:54.032Z,998.63
2017-11-13T00:12:54.053Z,998.62
2017-11-13T00:13:54.068Z,998.63
2017-11-13T00:14:54.086Z,998.65
2017-11-13T00:15:54.102Z,998.64
2017-11-13T00:16:54.120Z,998.69
2017-11-13T00:17:54.131Z,998.67
2017-11-13T00:18:54.148Z,998.71
2017-11-13T00:19:54.165Z,998.74
2017-11-13T00:20:54.184Z,998.76
2017-11-13T00:21:54.197Z,998.72
2017-11-13T00:22:54.217Z,998.75
2017-11-13T00:23:54.232Z,998.79
2017-11-13T00:24:54.247Z,998.79
2017-11-13T00:25:54.268Z,998.77
2017-11-13T00:27:54.301Z,998.82
2017-11-13T00:28:54.313Z,998.81
2017-11-13T00:29:54.333Z,998.84
2017-11-13T00:30:54.354Z,998.87
2017-11-13T00:31:54.364Z,998.86
2017-11-13T00:32:54.381Z,998.9
2017-11-13T00:33:54.395Z,998.89
2017-11-13T00:34:54.414Z,998.91
2017-11-13T00:35:54.431Z,998.89
2017-11-13T00:36:54.448Z,998.88
2017-11-13T00:37:54.461Z,998.89
2017-11-13T00:38:54.479Z,998.95
2017-11-13T00:39:54.497Z,998.9
2017-11-13T00:40:54.510Z,998.94
2017-11-13T00:41:54.528Z,998.93
2017-11-13T00:43:54.560Z,998.95
2017-11-13T00:44:54.575Z,999.01
2017-11-13T00:45:54.599Z,998.99
2017-11-13T00:46:54.612Z,999.01
2017-11-13T00:47:54.626Z,999.02
2017-11-13T00:48:54.644Z,999.02
2017-11-13T00:49:54.661Z,999.03
2017-11-13T00:50:54.674Z,999.02
2017-11-13T00:51:54.692Z,999.07
2017-11-13T00:52:54.712Z,999.07
2017-11-13T00:53:54.723Z,999.04
2017-11-13T00:54:54.749Z,999.04
2017-11-13T00:55:54.760Z,999.06
2017-11-13T00:56:54.776Z,999.1
2017-11-13T00:57:54.791Z,999.08
2017-11-13T00:59:54.826Z,999.07
2017-11-13T01:00:54.839Z,999.06
2017-11-13T01:01:54.858Z,999.04
2017-11-13T01:02:54.875Z,999.04
2017-11-13T01:03:54.888Z,999.01
2017-11-13T01:04:54.904Z,999
2017-11-13T01:05:54.925Z,998.99
2017-11-13T01:06:54.940Z,999.02
2017-11-13T01:07:54.957Z,999.03
2017-11-13T01:08:54.972Z,999.03
2017-11-13T01:09:54.986Z,999.02
2017-11-13T01:10:55.015Z,999.09
2017-11-13T01:11:55.026Z,999.06
2017-11-13T01:12:55.040Z,999.09
2017-11-13T01:14:55.087Z,999.15
2017-11-13T01:15:55.088Z,999.15
2017-11-13T01:16:55.102Z,999.15
2017-11-13T01:17:55.120Z,999.16
2017-11-13T01:18:55.136Z,999.18
2017-11-13T01:19:55.151Z,999.2
2017-11-13T01:20:55.170Z,999.18
2017-11-13T01:21:55.194Z,999.16
2017-11-13T01:22:55.200Z,999.15
2017-11-13T01:23:55.220Z,999.14
2017-11-13T01:24:55.232Z,999.14
2017-11-13T01:25:55.253Z,999.11
2017-11-13T01:26:55.270Z,999.15
2017-11-13T01:27:55.286Z,999.17
2017-11-13T01:28:55.298Z,999.18
2017-11-13T01:29:55.319Z,999.16
2017-11-13T01:30:55.334Z,999.16
2017-11-13T01:31:55.351Z,999.17
2017-11-13T01:32:55.365Z,999.15
2017-11-13T01:33:55.392Z,999.19
2017-11-13T01:34:55.406Z,999.19
2017-11-13T01:35:55.418Z,999.16
2017-11-13T01:36:55.438Z,999.15
2017-11-13T01:37:55.447Z,999.18
2017-11-13T01:38:55.466Z,999.16
2017-11-13T01:39:55.482Z,999.15
2017-11-13T01:40:55.495Z,999.18
2017-11-13T01:41:55.519Z,999.14
2017-11-13T01:42:55.531Z,999.19
2017-11-13T01:43:55.552Z,999.16
2017-11-13T01:44:55.561Z,999.23
2017-11-13T01:46:55.596Z,999.24
2017-11-13T01:47:55.614Z,999.26
2017-11-13T01:48:55.629Z,999.28
2017-11-13T01:49:55.642Z,999.27
2017-11-13T01:50:55.666Z,999.32
2017-11-13T01:51:55.675Z,999.34
2017-11-13T01:52:55.691Z,999.34
2017-11-13T01:53:55.707Z,999.35
2017-11-13T01:54:55.724Z,999.38
2017-11-13T01:55:55.739Z,999.36
2017-11-13T01:56:55.758Z,999.36
2017-11-13T01:57:55.776Z,999.36
2017-11-13T01:58:55.792Z,999.37
2017-11-13T01:59:55.804Z,999.34
2017-11-13T02:00:55.822Z,999.36
2017-11-13T02:02:55.854Z,999.37
2017-11-13T02:03:55.872Z,999.37
2017-11-13T02:04:55.886Z,999.39
2017-11-13T02:05:55.906Z,999.43
2017-11-13T02:06:55.921Z,999.45
2017-11-13T02:07:55.933Z,999.5
2017-11-13T02:08:55.951Z,999.48
2017-11-13T02:09:55.966Z,999.56
2017-11-13T02:10:55.988Z,999.57
2017-11-13T02:11:55.998Z,999.62
2017-11-13T02:12:56.015Z,999.63
2017-11-13T02:13:56.035Z,999.65
2017-11-13T02:14:56.048Z,999.67
2017-11-13T02:15:56.064Z,999.68
2017-11-13T02:16:56.080Z,999.64
2017-11-13T02:18:56.115Z,999.69
2017-11-13T02:19:56.131Z,999.72
2017-11-13T02:20:56.146Z,999.73
2017-11-13T02:21:56.162Z,999.71
2017-11-13T02:22:56.177Z,999.74
2017-11-13T02:23:56.193Z,999.73
2017-11-13T02:24:56.215Z,999.73
2017-11-13T02:25:56.231Z,999.75
2017-11-13T02:26:56.243Z,999.76
2017-11-13T02:27:56.262Z,999.77
2017-11-13T02:28:56.277Z,999.82
2017-11-13T02:29:56.295Z,999.81
2017-11-13T02:30:56.309Z,999.82
2017-11-13T02:31:56.328Z,999.78
2017-11-13T02:32:56.340Z,999.85
2017-11-13T02:34:56.373Z,999.89
2017-11-13T02:35:56.394Z,999.9
2017-11-13T02:36:56.405Z,999.88
2017-11-13T02:37:56.425Z,999.88
2017-11-13T02:38:56.441Z,999.93
2017-11-13T02:39:56.457Z,999.95
2017-11-13T02:40:56.471Z,999.98
2017-11-13T02:41:56.491Z,999.97
2017-11-13T02:42:56.507Z,1000.01
2017-11-13T02:43:56.519Z,1000.03
2017-11-13T02:44:56.535Z,1000.03
2017-11-13T02:45:56.551Z,1000.02
2017-11-13T02:46:56.573Z,1000.02
2017-11-13T02:47:56.588Z,999.99
2017-11-13T02:49:56.619Z,999.99
2017-11-13T02:50:56.633Z,1000.02
2017-11-13T02:51:56.651Z,1000.07
2017-11-13T02:52:56.666Z,1000.04
2017-11-13T02:53:56.689Z,1000.08
2017-11-13T02:54:56.698Z,1000.11
2017-11-13T02:55:56.715Z,1000.14
2017-11-13T02:56:56.731Z,1000.21
2017-11-13T02:57:56.751Z,1000.2
2017-11-13T02:58:56.764Z,1000.2
2017-11-13T02:59:56.784Z,1000.2
2017-11-13T03:00:56.800Z,1000.23
2017-11-13T03:01:56.816Z,1000.19
2017-11-13T03:02:56.835Z,1000.19
2017-11-13T03:03:56.846Z,1000.22
2017-11-13T03:04:56.864Z,1000.26
2017-11-13T03:05:56.881Z,1000.22
2017-11-13T03:06:56.901Z,1000.23
2017-11-13T03:07:56.909Z,1000.21
2017-11-13T03:08:56.925Z,1000.24
2017-11-13T03:09:56.945Z,1000.22
2017-11-13T03:10:56.959Z,1000.27
2017-11-13T03:11:56.975Z,1000.31
2017-11-13T03:12:56.993Z,1000.31
2017-11-13T03:13:57.009Z,1000.32
2017-11-13T03:14:57.023Z,1000.36
2017-11-13T03:15:57.043Z,1000.34
2017-11-13T03:16:57.058Z,1000.33
2017-11-13T03:17:57.075Z,1000.38
2017-11-13T03:18:57.092Z,1000.36
2017-11-13T03:19:57.107Z,1000.41
2017-11-13T03:21:57.138Z,1000.38
2017-11-13T03:22:57.152Z,1000.38
2017-11-13T03:23:57.172Z,1000.38
2017-11-13T03:24:57.188Z,1000.39
2017-11-13T03:25:57.208Z,1000.36
2017-11-13T03:26:57.220Z,1000.38
2017-11-13T03:27:57.232Z,1000.39
2017-11-13T03:28:57.252Z,1000.39
2017-11-13T03:29:57.265Z,1000.39
2017-11-13T03:30:57.289Z,1000.46
2017-11-13T03:31:57.297Z,1000.42
2017-11-13T03:32:57.345Z,1000.47
2017-11-13T03:33:57.331Z,1000.47
2017-11-13T03:34:57.344Z,1000.46
2017-11-13T03:35:57.360Z,1000.5
2017-11-13T03:37:57.394Z,1000.56
2017-11-13T03:38:57.411Z,1000.58
2017-11-13T03:39:57.430Z,1000.6
2017-11-13T03:40:57.446Z,1000.66
2017-11-13T03:41:57.456Z,1000.67
2017-11-13T03:42:57.477Z,1000.72
2017-11-13T03:43:57.491Z,1000.71
2017-11-13T03:44:57.506Z,1000.76
2017-11-13T03:45:57.526Z,1000.71
2017-11-13T03:46:57.542Z,1000.77
2017-11-13T03:47:57.557Z,1000.74
2017-11-13T03:48:57.571Z,1000.81
2017-11-13T03:49:57.588Z,1000.83
2017-11-13T03:50:57.605Z,1000.84
2017-11-13T03:51:57.618Z,1000.87
2017-11-13T03:53:57.652Z,1000.85
2017-11-13T03:54:57.670Z,1000.91
2017-11-13T03:55:57.684Z,1000.92
2017-11-13T03:56:57.699Z,1000.93
2017-11-13T03:57:57.716Z,1000.92
2017-11-13T03:58:57.734Z,1000.96
2017-11-13T03:59:57.752Z,1000.96
2017-11-13T04:00:57.766Z,1000.97
2017-11-13T04:01:57.783Z,1000.99
2017-11-13T04:02:57.799Z,1000.98
2017-11-13T04:03:57.813Z,1000.99
2017-11-13T04:04:57.829Z,1001.04
2017-11-13T04:05:57.848Z,1001.07
2017-11-13T04:06:57.863Z,1001.07
2017-11-13T04:07:57.880Z,1001.09
2017-11-13T04:09:57.911Z,1001.11
2017-11-13T04:10:57.926Z,1001.14
2017-11-13T04:11:57.944Z,1001.14
2017-11-13T04:12:57.957Z,1001.2
2017-11-13T04:13:57.975Z,1001.2
2017-11-13T04:14:57.989Z,1001.23
2017-11-13T04:15:58.005Z,1001.22
2017-11-13T04:16:58.024Z,1001.24
2017-11-13T04:17:58.038Z,1001.27
2017-11-13T04:18:58.059Z,1001.31
2017-11-13T04:19:58.074Z,1001.3
2017-11-13T04:20:58.090Z,1001.33
2017-11-13T04:21:58.106Z,1001.35
2017-11-13T04:22:58.119Z,1001.39
2017-11-13T04:24:58.151Z,1001.38
2017-11-13T04:25:58.166Z,1001.41
2017-11-13T04:26:58.185Z,1001.45
2017-11-13T04:27:58.202Z,1001.47
2017-11-13T04:28:58.219Z,1001.48
2017-11-13T04:29:58.234Z,1001.47
2017-11-13T04:30:58.246Z,1001.54
2017-11-13T04:31:58.267Z,1001.52
2017-11-13T04:32:58.278Z,1001.56
2017-11-13T04:33:58.297Z,1001.57
2017-11-13T04:34:58.314Z,1001.57
2017-11-13T04:35:58.326Z,1001.55
2017-11-13T04:36:58.346Z,1001.56
2017-11-13T04:37:58.361Z,1001.55
2017-11-13T04:38:58.377Z,1001.58
2017-11-13T04:39:58.391Z,1001.6
2017-11-13T04:40:58.408Z,1001.57
2017-11-13T04:41:58.426Z,1001.6
2017-11-13T04:42:58.439Z,1001.63
2017-11-13T04:43:58.455Z,1001.6
2017-11-13T04:44:58.471Z,1001.7
2017-11-13T04:45:58.487Z,1001.66
2017-11-13T04:46:58.508Z,1001.72
2017-11-13T04:47:58.521Z,1001.72
2017-11-13T04:48:58.534Z,1001.72
2017-11-13T04:49:58.553Z,1001.76
2017-11-13T04:50:58.570Z,1001.74
2017-11-13T04:51:58.585Z,1001.81
2017-11-13T04:52:58.602Z,1001.83
2017-11-13T04:53:58.625Z,1001.86
2017-11-13T04:54:58.630Z,1001.91
2017-11-13T04:56:58.663Z,1001.92
2017-11-13T04:57:58.682Z,1001.93
2017-11-13T04:58:58.695Z,1001.99
2017-11-13T04:59:58.710Z,1001.96
2017-11-13T05:00:58.727Z,1001.94
2017-11-13T05:01:58.746Z,1002.01
2017-11-13T05:02:58.757Z,1001.98
2017-11-13T05:03:58.774Z,1001.96
2017-11-13T05:04:58.791Z,1002.01
2017-11-13T05:05:58.813Z,1002
2017-11-13T05:06:58.830Z,1002.01
2017-11-13T05:07:58.839Z,1002.05
2017-11-13T05:08:58.856Z,1001.98
2017-11-13T05:09:58.869Z,1002.02
2017-11-13T05:10:58.887Z,1002.06
2017-11-13T05:12:58.918Z,1002.04
2017-11-13T05:13:58.933Z,1002.05
2017-11-13T05:14:58.951Z,1002.06
2017-11-13T05:15:58.966Z,1002.08
2017-11-13T05:16:58.980Z,1002.07
2017-11-13T05:17:59.003Z,1002.13
2017-11-13T05:18:59.013Z,1002.1
2017-11-13T05:19:59.030Z,1002.17
2017-11-13T05:20:59.048Z,1002.09
2017-11-13T05:21:59.063Z,1002.14
2017-11-13T05:22:59.076Z,1002.14
2017-11-13T05:23:59.092Z,1002.14
2017-11-13T05:24:59.111Z,1002.15
2017-11-13T05:25:59.125Z,1002.17
2017-11-13T05:26:59.143Z,1002.2
2017-11-13T05:28:59.172Z,1002.24
2017-11-13T05:29:59.192Z,1002.23
2017-11-13T05:30:59.205Z,1002.23
2017-11-13T05:31:59.221Z,1002.27
2017-11-13T05:32:59.239Z,1002.26
2017-11-13T05:33:59.255Z,1002.28
2017-11-13T05:34:59.274Z,1002.25
2017-11-13T05:35:59.283Z,1002.29
2017-11-13T05:36:59.299Z,1002.27
2017-11-13T05:37:59.320Z,1002.31
2017-11-13T05:38:59.332Z,1002.36
2017-11-13T05:39:59.347Z,1002.31
2017-11-13T05:40:59.364Z,1002.34
2017-11-13T05:41:59.386Z,1002.37
2017-11-13T05:42:59.403Z,1002.35
2017-11-13T05:44:59.433Z,1002.41
2017-11-13T05:45:59.443Z,1002.4
2017-11-13T05:46:59.459Z,1002.4
2017-11-13T05:47:59.478Z,1002.36
2017-11-13T05:48:59.496Z,1002.38
2017-11-13T05:49:59.507Z,1002.38
2017-11-13T05:50:59.527Z,1002.41
2017-11-13T05:51:59.539Z,1002.41
2017-11-13T05:52:59.557Z,1002.51
2017-11-13T05:53:59.579Z,1002.49
2017-11-13T05:54:59.588Z,1002.49
2017-11-13T05:55:59.605Z,1002.56
2017-11-13T05:56:59.620Z,1002.61
2017-11-13T05:57:59.638Z,1002.6
2017-11-13T05:59:59.669Z,1002.62
2017-11-13T06:00:59.685Z,1002.64
2017-11-13T06:01:59.700Z,1002.67
2017-11-13T06:02:59.721Z,1002.71
2017-11-13T06:03:59.735Z,1002.7
2017-11-13T06:04:59.752Z,1002.7
2017-11-13T06:05:59.769Z,1002.73
2017-11-13T06:06:59.783Z,1002.77
2017-11-13T06:07:59.801Z,1002.75
2017-11-13T06:08:59.814Z,1002.76
2017-11-13T06:09:59.831Z,1002.79
2017-11-13T06:10:59.847Z,1002.83
2017-11-13T06:11:59.867Z,1002.81
2017-11-13T06:12:59.885Z,1002.85
2017-11-13T06:13:59.899Z,1002.79
2017-11-13T06:14:59.910Z,1002.86
2017-11-13T06:15:59.939Z,1002.88
2017-11-13T06:16:59.945Z,1002.88
2017-11-13T06:17:59.958Z,1002.91
2017-11-13T06:18:59.977Z,1002.92
2017-11-13T06:19:59.990Z,1002.94
2017-11-13T06:21:00.008Z,1002.99
2017-11-13T06:22:00.028Z,1002.97
2017-11-13T06:23:00.042Z,1003
2017-11-13T06:24:00.056Z,1003
2017-11-13T06:25:00.073Z,1003.05
2017-11-13T06:26:00.094Z,1003.09
2017-11-13T06:27:00.106Z,1003.07
2017-11-13T06:28:00.124Z,1003.12
2017-11-13T06:29:00.140Z,1003.16
2017-11-13T06:30:00.152Z,1003.15
2017-11-13T06:32:00.185Z,1003.17
2017-11-13T06:33:00.205Z,1003.21
2017-11-13T06:34:00.218Z,1003.22
2017-11-13T06:35:00.236Z,1003.24
2017-11-13T06:36:00.249Z,1003.26
2017-11-13T06:37:00.267Z,1003.32
2017-11-13T06:38:00.281Z,1003.33
2017-11-13T06:39:00.301Z,1003.35
2017-11-13T06:40:00.317Z,1003.31
2017-11-13T06:41:00.332Z,1003.32
2017-11-13T06:42:00.349Z,1003.36
2017-11-13T06:43:00.365Z,1003.4
2017-11-13T06:44:00.382Z,1003.4
2017-11-13T06:45:00.394Z,1003.43
2017-11-13T06:46:00.414Z,1003.46
2017-11-13T06:48:00.446Z,1003.46
2017-11-13T06:49:00.463Z,1003.47
2017-11-13T06:50:00.477Z,1003.5
2017-11-13T06:51:00.493Z,1003.51
2017-11-13T06:52:00.510Z,1003.5
2017-11-13T06:53:00.522Z,1003.52
2017-11-13T06:54:00.542Z,1003.54
2017-11-13T06:55:00.559Z,1003.54
2017-11-13T06:56:00.572Z,1003.55
2017-11-13T06:57:00.593Z,1003.56
2017-11-13T06:58:00.607Z,1003.61
2017-11-13T06:59:00.620Z,1003.59
2017-11-13T07:00:00.636Z,1003.63
2017-11-13T07:01:00.657Z,1003.59
2017-11-13T07:02:00.669Z,1003.65
2017-11-13T07:04:00.702Z,1003.69
2017-11-13T07:05:00.717Z,1003.67
2017-11-13T07:06:00.734Z,1003.7
2017-11-13T07:07:00.749Z,1003.7
2017-11-13T07:08:00.766Z,1003.73
2017-11-13T07:09:00.786Z,1003.75
2017-11-13T07:10:00.798Z,1003.76
2017-11-13T07:11:00.815Z,1003.8
2017-11-13T07:12:00.829Z,1003.82
2017-11-13T07:13:00.853Z,1003.79
2017-11-13T07:14:00.866Z,1003.83
2017-11-13T07:15:00.879Z,1003.89
2017-11-13T07:16:00.899Z,1003.89
2017-11-13T07:17:00.912Z,1003.85
2017-11-13T07:18:00.929Z,1003.86
2017-11-13T07:20:00.963Z,1003.87
2017-11-13T07:21:00.979Z,1003.84
2017-11-13T07:22:00.994Z,1003.87
2017-11-13T07:23:01.008Z,1003.81
2017-11-13T07:24:01.029Z,1003.84
2017-11-13T07:25:01.039Z,1003.87
2017-11-13T07:26:01.057Z,1003.85
2017-11-13T07:27:01.073Z,1003.86
2017-11-13T07:28:01.092Z,1003.88
2017-11-13T07:29:01.108Z,1003.88
2017-11-13T07:30:01.122Z,1003.87
2017-11-13T07:31:01.142Z,1003.88
2017-11-13T07:32:01.159Z,1003.92
2017-11-13T07:33:01.171Z,1003.9
2017-11-13T07:35:01.208Z,1003.94
2017-11-13T07:36:01.222Z,1003.97
2017-11-13T07:37:01.240Z,1003.96
2017-11-13T07:38:01.253Z,1004
2017-11-13T07:39:01.269Z,1004.03
2017-11-13T07:40:01.287Z,1004
2017-11-13T07:41:01.303Z,1003.98
2017-11-13T07:42:01.320Z,1004.04
2017-11-13T07:43:01.337Z,1004.03
2017-11-13T07:44:01.355Z,1004.03
2017-11-13T07:45:01.367Z,1004.05
2017-11-13T07:46:01.389Z,1004.09
2017-11-13T07:47:01.403Z,1004.04
2017-11-13T07:48:01.419Z,1004.04
2017-11-13T07:49:01.437Z,1004.11
2017-11-13T07:50:01.451Z,1004.15
2017-11-13T07:51:01.469Z,1004.21
2017-11-13T07:52:01.482Z,1004.21
2017-11-13T07:53:01.498Z,1004.14
2017-11-13T07:54:01.518Z,1004.27
2017-11-13T07:55:01.534Z,1004.24
2017-11-13T07:56:01.559Z,1004.24
2017-11-13T07:57:01.669Z,1004.23
2017-11-13T07:58:01.585Z,1004.25
2017-11-13T07:59:01.604Z,1004.27
2017-11-13T08:00:01.615Z,1004.24
2017-11-13T08:01:01.632Z,1004.24
2017-11-13T08:02:01.648Z,1004.29
2017-11-13T08:03:01.669Z,1004.26
2017-11-13T08:04:01.683Z,1004.31
2017-11-13T08:05:01.700Z,1004.31
2017-11-13T08:07:01.730Z,1004.29
2017-11-13T08:08:01.751Z,1004.3
2017-11-13T08:09:01.767Z,1004.29
2017-11-13T08:10:01.782Z,1004.33
2017-11-13T08:11:01.796Z,1004.26
2017-11-13T08:12:01.817Z,1004.32
2017-11-13T08:13:01.832Z,1004.26
2017-11-13T08:14:01.849Z,1004.27
2017-11-13T08:15:01.868Z,1004.23
2017-11-13T08:16:01.879Z,1004.24
2017-11-13T08:17:01.896Z,1004.28
2017-11-13T08:18:01.917Z,1004.27
2017-11-13T08:19:01.936Z,1004.32
2017-11-13T08:20:01.949Z,1004.42
2017-11-13T08:21:01.962Z,1004.35
2017-11-13T08:23:01.998Z,1004.43
2017-11-13T08:24:02.029Z,1004.47
2017-11-13T08:25:02.032Z,1004.44
2017-11-13T08:26:02.046Z,1004.46
2017-11-13T08:27:02.068Z,1004.51
2017-11-13T08:28:02.078Z,1004.51
2017-11-13T08:29:02.098Z,1004.61
2017-11-13T08:30:02.111Z,1004.61
2017-11-13T08:31:02.130Z,1004.63
2017-11-13T08:32:02.146Z,1004.69
2017-11-13T08:33:02.160Z,1004.67
2017-11-13T08:34:02.188Z,1004.74
2017-11-13T08:35:02.196Z,1004.74
2017-11-13T08:36:02.210Z,1004.78
2017-11-13T08:37:02.228Z,1004.84
2017-11-13T08:39:02.264Z,1004.9
2017-11-13T08:40:02.279Z,1005.05
2017-11-13T08:41:02.296Z,1005.01
2017-11-13T08:42:02.311Z,1005.04
2017-11-13T08:43:02.329Z,1005.02
2017-11-13T08:44:02.345Z,1005.06
2017-11-13T08:45:02.362Z,1005.1
2017-11-13T08:46:02.373Z,1005.13
2017-11-13T08:47:02.395Z,1005.18
2017-11-13T08:48:02.410Z,1005.12
2017-11-13T08:49:02.424Z,1005.12
2017-11-13T08:50:02.444Z,1005.08
2017-11-13T08:51:02.456Z,1005.17
2017-11-13T08:52:02.474Z,1005.19
2017-11-13T08:53:02.489Z,1005.17
2017-11-13T08:55:02.527Z,1005.19
2017-11-13T08:56:02.543Z,1005.12
2017-11-13T08:57:02.559Z,1005.19
2017-11-13T08:58:02.576Z,1005.21
2017-11-13T08:59:02.594Z,1005.2
2017-11-13T09:00:02.608Z,1005.2
2017-11-13T09:01:02.622Z,1005.18
2017-11-13T09:02:02.639Z,1005.17
2017-11-13T09:03:02.756Z,1005.23
2017-11-13T09:04:02.670Z,1005.23
2017-11-13T09:05:02.793Z,1005.26
2017-11-13T09:06:02.705Z,1005.28
2017-11-13T09:07:02.720Z,1005.31
2017-11-13T09:08:02.737Z,1005.31
2017-11-13T09:10:02.770Z,1005.36
2017-11-13T09:11:02.789Z,1005.38
2017-11-13T09:12:02.806Z,1005.38
2017-11-13T09:13:02.819Z,1005.42
2017-11-13T09:14:02.835Z,1005.44
2017-11-13T09:15:02.854Z,1005.47
2017-11-13T09:16:02.869Z,1005.51
2017-11-13T09:17:02.889Z,1005.56
2017-11-13T09:18:02.903Z,1005.59
2017-11-13T09:19:02.922Z,1005.62
2017-11-13T09:20:02.940Z,1005.59
2017-11-13T09:21:02.956Z,1005.66
2017-11-13T09:22:02.971Z,1005.59
2017-11-13T09:23:02.987Z,1005.66
2017-11-13T09:24:03.001Z,1005.67
2017-11-13T09:25:03.016Z,1005.67
2017-11-13T09:26:03.037Z,1005.66
2017-11-13T09:27:03.053Z,1005.71
2017-11-13T09:28:03.066Z,1005.71
2017-11-13T09:29:03.086Z,1005.69
2017-11-13T09:30:03.100Z,1005.7
2017-11-13T09:31:03.121Z,1005.77
2017-11-13T09:32:03.134Z,1005.76
2017-11-13T09:33:03.157Z,1005.79
2017-11-13T09:34:03.166Z,1005.8
2017-11-13T09:35:03.185Z,1005.82
2017-11-13T09:36:03.202Z,1005.85
2017-11-13T09:37:03.219Z,1005.88
2017-11-13T09:38:03.232Z,1005.87
2017-11-13T09:39:03.252Z,1005.91
2017-11-13T09:40:03.270Z,1005.98
2017-11-13T09:42:03.302Z,1006.02
2017-11-13T09:43:03.316Z,1006.07
2017-11-13T09:44:03.336Z,1006.08
2017-11-13T09:45:03.355Z,1006.11
2017-11-13T09:46:03.370Z,1006.07
2017-11-13T09:47:03.383Z,1006.11
2017-11-13T09:48:03.398Z,1006.09
2017-11-13T09:49:03.416Z,1006.13
2017-11-13T09:50:03.435Z,1006.13
2017-11-13T09:51:03.449Z,1006.16
2017-11-13T09:52:03.470Z,1006.17
2017-11-13T09:53:03.486Z,1006.16
2017-11-13T09:54:03.502Z,1006.17
2017-11-13T09:55:03.520Z,1006.23
2017-11-13T09:56:03.537Z,1006.17
2017-11-13T09:58:03.568Z,1006.14
2017-11-13T09:59:03.584Z,1006.09
2017-11-13T10:00:03.605Z,1006.14
2017-11-13T10:01:03.622Z,1006.15
2017-11-13T10:02:03.635Z,1006.13
2017-11-13T10:03:03.653Z,1006.13
2017-11-13T10:04:03.672Z,1006.09
2017-11-13T10:05:03.690Z,1006.1
2017-11-13T10:06:03.706Z,1006.11
2017-11-13T10:07:03.724Z,1006.19
2017-11-13T10:08:03.739Z,1006.2
2017-11-13T10:09:03.759Z,1006.18
2017-11-13T10:10:03.779Z,1006.2
2017-11-13T10:11:03.792Z,1006.23
2017-11-13T10:12:03.809Z,1006.2
2017-11-13T10:14:03.839Z,1006.25
2017-11-13T10:15:03.858Z,1006.23
2017-11-13T10:16:03.900Z,1006.21
2017-11-13T10:17:03.890Z,1006.3
2017-11-13T10:18:03.912Z,1006.29
2017-11-13T10:19:03.928Z,1006.23
2017-11-13T10:20:03.946Z,1006.34
2017-11-13T10:21:03.962Z,1006.32
2017-11-13T10:22:03.980Z,1006.32
2017-11-13T10:23:03.997Z,1006.34
2017-11-13T10:24:04.010Z,1006.38
2017-11-13T10:25:04.028Z,1006.4
2017-11-13T10:26:04.046Z,1006.41
2017-11-13T10:27:04.061Z,1006.38
2017-11-13T10:28:04.087Z,1006.41
2017-11-13T10:30:04.115Z,1006.45
2017-11-13T10:31:04.152Z,1006.44
2017-11-13T10:32:04.150Z,1006.47
2017-11-13T10:33:04.164Z,1006.41
2017-11-13T10:34:04.181Z,1006.45
2017-11-13T10:35:04.201Z,1006.45
2017-11-13T10:36:04.215Z,1006.47
2017-11-13T10:37:04.236Z,1006.47
2017-11-13T10:38:04.249Z,1006.45
2017-11-13T10:39:04.268Z,1006.48
2017-11-13T10:40:04.287Z,1006.51
2017-11-13T10:41:04.306Z,1006.48
2017-11-13T10:42:04.321Z,1006.46
2017-11-13T10:43:04.336Z,1006.46
2017-11-13T10:45:04.370Z,1006.51
2017-11-13T10:46:04.389Z,1006.46
2017-11-13T10:47:04.407Z,1006.5
2017-11-13T10:48:04.426Z,1006.51
2017-11-13T10:49:04.441Z,1006.51
2017-11-13T10:50:04.458Z,1006.55
2017-11-13T10:51:04.477Z,1006.57
2017-11-13T10:52:04.496Z,1006.58
2017-11-13T10:53:04.510Z,1006.57
2017-11-13T10:54:04.525Z,1006.59
2017-11-13T10:55:04.545Z,1006.61
2017-11-13T10:56:04.564Z,1006.69
2017-11-13T10:57:04.576Z,1006.66
2017-11-13T10:58:04.595Z,1006.75
2017-11-13T10:59:04.616Z,1006.73
2017-11-13T11:00:04.630Z,1006.74
2017-11-13T11:01:04.646Z,1006.78
2017-11-13T11:02:04.666Z,1006.8
2017-11-13T11:03:04.682Z,1006.84
2017-11-13T11:04:04.701Z,1006.86
2017-11-13T11:05:04.715Z,1006.9
2017-11-13T11:06:04.832Z,1006.86
2017-11-13T11:07:04.752Z,1006.92
2017-11-13T11:08:04.767Z,1006.89
2017-11-13T11:09:04.787Z,1006.93
2017-11-13T11:10:04.804Z,1006.95
2017-11-13T11:11:04.822Z,1006.98
2017-11-13T11:12:04.842Z,1007.02
2017-11-13T11:13:04.857Z,1007.07
2017-11-13T11:14:04.877Z,1007.07
2017-11-13T11:15:04.894Z,1007.09
2017-11-13T11:17:04.931Z,1007.08
2017-11-13T11:18:04.945Z,1007.1
2017-11-13T11:19:04.962Z,1007.09
2017-11-13T11:20:04.980Z,1007.07
2017-11-13T11:21:04.997Z,1007.1
2017-11-13T11:22:05.021Z,1007
2017-11-13T11:23:05.035Z,1007.06
2017-11-13T11:24:05.054Z,1007.01
2017-11-13T11:25:05.069Z,1006.99
2017-11-13T11:26:05.086Z,1007.02
2017-11-13T11:27:05.108Z,1006.97
2017-11-13T11:28:05.122Z,1007
2017-11-13T11:29:05.142Z,1006.89
2017-11-13T11:30:05.166Z,1006.92
2017-11-13T11:31:05.197Z,1006.9
2017-11-13T11:33:05.213Z,1006.86
2017-11-13T11:34:05.227Z,1006.89
2017-11-13T11:35:05.247Z,1006.86
2017-11-13T11:36:05.271Z,1006.89
2017-11-13T11:37:05.282Z,1006.89
2017-11-13T11:38:05.301Z,1006.89
2017-11-13T11:39:05.320Z,1006.87
2017-11-13T11:40:05.335Z,1006.87
2017-11-13T11:41:05.357Z,1006.84
2017-11-13T11:42:05.371Z,1006.86
2017-11-13T11:43:05.393Z,1006.86
2017-11-13T11:44:05.411Z,1006.9
2017-11-13T11:45:05.428Z,1006.86
2017-11-13T11:46:05.444Z,1006.93
2017-11-13T11:47:05.463Z,1006.92
2017-11-13T11:49:05.514Z,1006.95
2017-11-13T11:50:05.518Z,1006.92
2017-11-13T11:51:05.533Z,1006.98
2017-11-13T11:52:05.552Z,1007
2017-11-13T11:53:05.598Z,1006.97
2017-11-13T11:54:05.587Z,1007.02
2017-11-13T11:55:05.611Z,1007.09
2017-11-13T11:56:05.624Z,1007.07
2017-11-13T11:57:05.646Z,1007.08
2017-11-13T11:58:05.661Z,1007.15
2017-11-13T11:59:05.678Z,1007.16
2017-11-13T12:00:05.701Z,1007.17
2017-11-13T12:01:05.719Z,1007.19
2017-11-13T12:02:05.733Z,1007.23
2017-11-13T12:03:05.752Z,1007.23
2017-11-13T12:05:05.788Z,1007.23
2017-11-13T12:06:05.806Z,1007.21
2017-11-13T12:07:05.824Z,1007.19
2017-11-13T12:08:05.842Z,1007.23
2017-11-13T12:09:05.861Z,1007.19
2017-11-13T12:10:05.878Z,1007.22
2017-11-13T12:11:05.903Z,1007.23
2017-11-13T12:12:05.915Z,1007.21
2017-11-13T12:13:05.934Z,1007.28
2017-11-13T12:14:05.951Z,1007.27
2017-11-13T12:15:05.974Z,1007.27
2017-11-13T12:16:05.995Z,1007.28
2017-11-13T12:17:06.009Z,1007.32
2017-11-13T12:18:06.028Z,1007.33
2017-11-13T12:20:06.066Z,1007.26
2017-11-13T12:21:06.080Z,1007.34
2017-11-13T12:22:06.102Z,1007.31
2017-11-13T12:23:06.119Z,1007.28
2017-11-13T12:24:06.138Z,1007.26
2017-11-13T12:25:06.152Z,1007.26
2017-11-13T12:26:06.174Z,1007.24
2017-11-13T12:27:06.193Z,1007.33
2017-11-13T12:28:06.229Z,1007.3
2017-11-13T12:29:06.227Z,1007.33
2017-11-13T12:30:06.249Z,1007.35
2017-11-13T12:31:06.264Z,1007.29
2017-11-13T12:32:06.284Z,1007.35
2017-11-13T12:33:06.303Z,1007.32
2017-11-13T12:34:06.318Z,1007.34
2017-11-13T12:35:06.338Z,1007.35
2017-11-13T12:36:06.359Z,1007.37
2017-11-13T12:37:06.374Z,1007.4
2017-11-13T12:38:06.393Z,1007.38
2017-11-13T12:39:06.416Z,1007.39
2017-11-13T12:40:06.438Z,1007.42
2017-11-13T12:41:06.448Z,1007.43
2017-11-13T12:42:06.466Z,1007.46
2017-11-13T12:43:06.488Z,1007.43
2017-11-13T12:44:06.502Z,1007.44
2017-11-13T12:45:06.523Z,1007.51
2017-11-13T12:46:06.551Z,1007.52
2017-11-13T12:47:06.565Z,1007.48
2017-11-13T12:48:06.580Z,1007.48
2017-11-13T12:49:06.600Z,1007.53
2017-11-13T12:50:06.623Z,1007.56
2017-11-13T12:52:06.656Z,1007.65
2017-11-13T12:53:06.674Z,1007.67
2017-11-13T12:54:06.695Z,1007.67
2017-11-13T12:55:06.710Z,1007.67